createdAt,value
2019-06-04T00:03:47.712Z,56.90
2019-06-04T00:08:50.077Z,56.90
2019-06-04T00:13:59.226Z,56.90
2019-06-04T00:19:03.744Z,57.00
2019-06-04T00:24:05.009Z,56.90
2019-06-04T00:29:12.534Z,57.00
2019-06-04T00:39:56.499Z,57.00
2019-06-04T00:45:06.522Z,57.00
2019-06-04T00:50:10.921Z,57.10
2019-06-04T00:55:28.600Z,57.10
2019-06-04T01:00:32.781Z,57.20
2019-06-04T01:05:36.183Z,57.10
2019-06-04T01:10:48.438Z,57.10
2019-06-04T01:15:53.157Z,57.20
2019-06-04T01:21:07.116Z,57.20
2019-06-04T01:26:09.707Z,57.20
2019-06-04T01:31:14.276Z,57.20
2019-06-04T01:36:16.805Z,57.20
2019-06-04T01:41:29.492Z,57.20
2019-06-04T01:46:34.061Z,57.30
2019-06-04T01:51:38.611Z,57.40
2019-06-04T01:56:43.126Z,57.40
2019-06-04T02:01:46.529Z,57.20
2019-06-04T02:07:11.982Z,57.20
2019-06-04T02:12:18.076Z,57.10
2019-06-04T02:17:22.501Z,57.00
2019-06-04T02:22:27.101Z,57.00
2019-06-04T02:27:36.520Z,57.00
2019-06-04T02:33:04.098Z,57.20
2019-06-04T02:37:47.115Z,57.20
2019-06-04T02:42:48.416Z,57.30
2019-06-04T02:48:09.442Z,57.40
2019-06-04T02:53:14.098Z,57.30
2019-06-04T02:58:23.872Z,57.30
2019-06-04T03:03:31.064Z,57.20
2019-06-04T03:08:35.634Z,57.20
2019-06-04T03:13:37.087Z,57.20
2019-06-04T03:18:38.534Z,57.20
2019-06-04T03:23:42.096Z,57.80
2019-06-04T03:28:44.539Z,57.20
2019-06-04T03:33:57.929Z,57.70
2019-06-04T03:39:06.013Z,57.10
2019-06-04T03:44:08.107Z,57.00
2019-06-04T03:49:12.562Z,57.60
2019-06-04T03:54:20.869Z,57.00
2019-06-04T03:59:22.540Z,57.00
2019-06-04T04:04:24.586Z,57.00
2019-06-04T04:09:41.167Z,57.00
2019-06-04T04:14:45.674Z,57.20
2019-06-04T04:19:52.670Z,57.20
2019-06-04T04:24:57.232Z,57.00
2019-06-04T04:30:02.217Z,57.00
2019-06-04T04:35:32.483Z,56.70
2019-06-04T04:40:33.916Z,56.60
2019-06-04T04:45:35.214Z,56.50
2019-06-04T04:50:58.195Z,56.40
2019-06-04T04:56:13.663Z,56.20
2019-06-04T05:01:18.158Z,56.10
2019-06-04T05:06:20.861Z,55.90
2019-06-04T05:11:26.414Z,55.70
2019-06-04T05:16:29.835Z,55.50
2019-06-04T05:21:54.582Z,55.60
2019-06-04T05:27:01.792Z,55.60
2019-06-04T05:32:04.320Z,55.40
2019-06-04T05:37:05.625Z,55.50
2019-06-04T05:42:10.205Z,55.40
2019-06-04T05:47:14.692Z,54.90
2019-06-04T05:52:59.863Z,54.20
2019-06-04T05:58:07.297Z,53.90
2019-06-04T06:03:29.187Z,53.70
2019-06-04T06:08:40.727Z,53.40
2019-06-04T06:13:49.985Z,53.20
2019-06-04T06:18:54.489Z,53.40
2019-06-04T06:23:58.979Z,53.80
2019-06-04T06:29:04.186Z,54.10
2019-06-04T06:34:37.781Z,54.80
2019-06-04T06:39:38.122Z,54.90
2019-06-04T06:44:39.353Z,54.90
2019-06-04T06:49:42.579Z,54.50
2019-06-04T06:54:49.730Z,54.40
2019-06-04T07:00:11.644Z,54.10
2019-06-04T07:05:16.175Z,53.80
2019-06-04T07:10:26.206Z,54.10
2019-06-04T07:15:55.806Z,54.30
2019-06-04T07:20:57.156Z,54.30
2019-06-04T07:26:04.434Z,53.80
2019-06-04T07:31:06.911Z,53.80
2019-06-04T07:36:24.826Z,53.90
2019-06-04T07:41:26.316Z,53.70
2019-06-04T07:46:31.228Z,54.20
2019-06-04T07:51:33.820Z,54.30
2019-06-04T07:56:57.026Z,53.70
2019-06-04T08:02:08.123Z,53.20
2019-06-04T08:07:09.711Z,52.40
2019-06-04T08:12:12.076Z,52.40
2019-06-04T08:17:16.568Z,53.40
2019-06-04T08:22:38.207Z,54.40
2019-06-04T08:27:42.851Z,54.90
2019-06-04T08:32:50.283Z,55.50
2019-06-04T08:37:51.991Z,55.90
2019-06-04T08:42:56.492Z,56.40
2019-06-04T08:48:01.046Z,56.60
2019-06-04T08:53:04.352Z,56.70
2019-06-04T08:58:26.006Z,56.60
2019-06-04T09:03:30.641Z,56.50
2019-06-04T09:08:32.130Z,56.10
2019-06-04T09:13:41.115Z,55.90
2019-06-04T09:19:05.008Z,56.10
2019-06-04T09:24:08.490Z,56.40
2019-06-04T09:29:13.077Z,56.30
2019-06-04T09:34:17.535Z,55.80
2019-06-04T09:39:22.078Z,55.40
2019-06-04T09:45:23.324Z,55.50
2019-06-04T09:50:24.780Z,55.60
2019-06-04T09:55:29.203Z,55.50
2019-06-04T10:00:41.050Z,55.40
2019-06-04T10:05:59.436Z,55.60
2019-06-04T10:11:00.847Z,55.70
2019-06-04T10:16:09.123Z,56.10
2019-06-04T10:21:13.658Z,56.30
2019-06-04T10:26:24.522Z,56.20
2019-06-04T10:31:27.423Z,55.50
2019-06-04T10:36:35.904Z,55.30
2019-06-04T10:41:40.419Z,54.20
2019-06-04T10:46:41.787Z,54.40
2019-06-04T10:52:03.632Z,55.20
2019-06-04T10:57:35.989Z,56.00
2019-06-04T11:02:37.263Z,56.20
2019-06-04T11:07:41.820Z,55.90
2019-06-04T11:12:47.429Z,55.40
2019-06-04T11:18:07.037Z,55.00
2019-06-04T11:23:29.897Z,54.80
2019-06-04T11:28:32.376Z,54.40
2019-06-04T11:33:39.415Z,54.30
2019-06-04T11:38:43.956Z,54.10
2019-06-04T11:43:51.178Z,54.30
2019-06-04T11:48:57.421Z,54.50
2019-06-04T11:54:03.351Z,54.40
2019-06-04T11:59:08.119Z,54.70
2019-06-04T12:04:32.306Z,54.30
2019-06-04T12:09:44.809Z,53.60
2019-06-04T12:14:49.351Z,53.70
2019-06-04T12:20:04.509Z,53.00
2019-06-04T12:25:09.121Z,53.00
2019-06-04T12:30:41.240Z,52.90
2019-06-04T12:35:51.843Z,53.00
2019-06-04T12:40:56.848Z,52.90
2019-06-04T12:46:04.734Z,52.60
2019-06-04T12:51:07.926Z,52.60
2019-06-04T12:56:23.459Z,52.60
2019-06-04T13:01:30.678Z,53.00
2019-06-04T13:06:37.940Z,52.90
2019-06-04T13:11:46.052Z,52.50
2019-06-04T13:16:47.884Z,52.50
2019-06-04T13:21:49.425Z,52.40
2019-06-04T13:26:56.726Z,52.10
2019-06-04T13:31:59.882Z,52.00
2019-06-04T13:37:13.599Z,51.90
2019-06-04T13:42:26.490Z,52.00
2019-06-04T13:47:27.754Z,52.50
2019-06-04T13:52:35.089Z,52.40
2019-06-04T13:57:42.340Z,52.10
2019-06-04T14:02:43.744Z,51.80
2019-06-04T14:07:48.259Z,51.50
2019-06-04T14:12:51.606Z,51.60
2019-06-04T14:17:58.711Z,51.60
2019-06-04T14:23:10.450Z,51.60
2019-06-04T14:28:12.017Z,51.70
2019-06-04T14:33:26.065Z,51.60
2019-06-04T14:38:30.585Z,51.40
2019-06-04T14:43:31.824Z,51.60
2019-06-04T14:48:33.093Z,51.70
2019-06-04T14:53:40.291Z,51.70
2019-06-04T14:58:43.831Z,51.90
2019-06-04T15:03:48.337Z,52.00
2019-06-04T15:08:52.989Z,52.20
2019-06-04T15:13:54.257Z,52.70
2019-06-04T15:19:07.533Z,53.00
2019-06-04T15:24:08.976Z,53.60
2019-06-04T15:29:13.538Z,53.60
2019-06-04T15:34:43.001Z,52.50
2019-06-04T15:39:50.243Z,51.10
2019-06-04T15:44:51.724Z,50.40
2019-06-04T15:49:54.109Z,50.40
2019-06-04T15:54:55.372Z,51.20
2019-06-04T15:59:57.719Z,51.50
2019-06-04T16:04:59.153Z,51.60
2019-06-04T16:10:03.179Z,52.30
2019-06-04T16:15:05.241Z,52.00
2019-06-04T16:20:17.589Z,51.50
2019-06-04T16:25:20.106Z,51.20
2019-06-04T16:30:33.591Z,51.30
2019-06-04T16:35:35.409Z,51.40
2019-06-04T16:40:37.504Z,51.50
2019-06-04T16:45:38.965Z,51.50
2019-06-04T16:50:40.479Z,51.60
2019-06-04T16:55:43.201Z,51.90
2019-06-04T17:00:44.538Z,51.80
2019-06-04T17:05:47.944Z,51.70
2019-06-04T17:10:55.725Z,51.70
2019-06-04T17:15:59.084Z,52.40
2019-06-04T17:21:00.586Z,52.00
2019-06-04T17:26:06.853Z,52.50
2019-06-04T17:31:07.192Z,52.80
2019-06-04T17:36:08.423Z,53.20
2019-06-04T17:41:09.826Z,53.50
2019-06-04T17:46:11.291Z,53.90
2019-06-04T17:51:12.771Z,53.90
2019-06-04T17:56:13.948Z,54.00
2019-06-04T18:01:15.407Z,53.80
2019-06-04T18:06:16.891Z,53.90
2019-06-04T18:11:18.331Z,54.00
2019-06-04T18:16:19.548Z,53.80
2019-06-04T18:21:21.316Z,53.90
2019-06-04T18:26:22.555Z,54.00
2019-06-04T18:31:23.932Z,54.00
2019-06-04T18:36:25.435Z,54.10
2019-06-04T18:41:28.038Z,54.10
2019-06-04T18:46:30.675Z,54.00
2019-06-04T18:51:33.331Z,54.00
2019-06-04T18:56:36.001Z,54.10
2019-06-04T19:01:38.667Z,54.20
2019-06-04T19:06:41.221Z,55.50
2019-06-04T19:11:42.824Z,59.30
2019-06-04T19:16:54.408Z,61.20
2019-06-04T19:21:55.685Z,62.30
2019-06-04T19:26:57.071Z,62.90
2019-06-04T19:32:04.701Z,63.30
2019-06-04T19:37:05.931Z,63.20
2019-06-04T19:42:16.532Z,62.70
2019-06-04T19:53:12.959Z,61.60
2019-06-04T19:58:17.465Z,61.30
2019-06-04T20:03:27.815Z,61.10
2019-06-04T20:08:32.369Z,61.00
2019-06-04T20:13:41.563Z,60.90
2019-06-04T20:18:42.636Z,60.80
2019-06-04T20:23:48.945Z,60.50
2019-06-04T20:28:58.435Z,60.40
2019-06-04T20:34:00.617Z,60.10
2019-06-04T20:39:03.573Z,59.90
2019-06-04T20:44:05.113Z,59.80
2019-06-04T20:49:26.112Z,59.60
2019-06-04T20:54:09.902Z,59.60
2019-06-04T20:59:13.205Z,60.10
2019-06-04T21:04:15.580Z,59.50
2019-06-04T21:09:16.763Z,59.30
2019-06-04T21:14:39.897Z,59.30
2019-06-04T21:19:42.100Z,59.20
2019-06-04T21:24:43.365Z,59.10
2019-06-04T21:29:45.488Z,59.10
2019-06-04T21:34:47.169Z,59.10
2019-06-04T21:39:57.836Z,59.10
2019-06-04T21:45:20.990Z,59.30
2019-06-04T21:50:22.252Z,59.70
2019-06-04T21:55:23.528Z,60.10
2019-06-04T22:00:45.343Z,60.10
2019-06-04T22:05:53.951Z,60.40
2019-06-04T22:10:58.568Z,60.70
2019-06-04T22:16:10.688Z,61.00
2019-06-04T22:21:09.637Z,61.10
2019-06-04T22:26:10.955Z,61.10
2019-06-04T22:31:20.442Z,61.20
2019-06-04T22:36:23.939Z,61.40
2019-06-04T22:41:25.220Z,61.50
2019-06-04T22:46:41.736Z,61.40
2019-06-04T22:51:42.898Z,61.50
2019-06-04T22:56:53.342Z,62.20
2019-06-04T23:01:56.133Z,61.40
2019-06-04T23:07:17.143Z,61.40
2019-06-04T23:12:21.724Z,61.20
2019-06-04T23:17:28.780Z,61.10
2019-06-04T23:22:31.339Z,61.00
2019-06-04T23:27:35.884Z,60.90
2019-06-04T23:32:37.064Z,60.90
2019-06-04T23:37:38.542Z,60.70
2019-06-04T23:42:47.063Z,60.60
2019-06-04T23:47:51.608Z,60.60
2019-06-04T23:53:25.809Z,60.50
2019-06-04T23:58:56.169Z,60.40
